Time;durP1;ratioP1;P1;durP2;ratioP2;P2;SDS_P1;SDS_P2;PMS_P1;PMS_P2;Temp;Humidity;BMP_temperature;BMP_pressure;BME280_temperature;BME280_humidity;BME280_pressure;Samples;Min_cycle;Max_cycle;Signal;HPM_P1;HPM_P2
2022/12/17 13:06:54;;;;;;;119.00;58.00;;;;;;;-1.10;88.97;99340.59;85810;1290;99548;-73
2022/12/17 13:09:22;;;;;;;112.10;54.50;;;;;;;-1.10;88.86;99341.11;85882;1280;22499;-73
2022/12/17 13:11:29;;;;;;;112.80;54.40;;;;;;;-1.11;88.84;99339.02;85313;1296;22967;-71
2022/12/17 13:13:38;;;;;;;117.40;54.50;;;;;;;-1.11;88.83;99341.95;85453;1291;22507;-72
2022/12/17 13:15:46;;;;;;;123.40;56.70;;;;;;;-1.12;88.70;99348.33;85300;1296;24276;-72
2022/12/17 13:18:00;;;;;;;100.90;50.20;;;;;;;-1.13;88.68;99354.71;85216;1295;99760;-72
2022/12/17 13:20:25;;;;;;;115.10;55.70;;;;;;;-1.13;88.86;99354.89;85457;1290;25353;-72
2022/12/17 13:22:32;;;;;;;122.00;56.20;;;;;;;-1.14;88.79;99357.98;85371;1288;22788;-71
2022/12/17 13:24:34;;;;;;;124.70;59.20;;;;;;;-1.14;88.87;99360.40;85286;1289;98432;-73
2022/12/17 13:26:38;;;;;;;120.80;56.50;;;;;;;-1.15;88.75;99364.18;85302;1292;23896;-71
2022/12/17 13:28:42;;;;;;;116.30;54.90;;;;;;;-1.17;88.70;99365.73;85523;1294;22498;-71
2022/12/17 13:30:44;;;;;;;109.00;50.90;;;;;;;-1.19;88.72;99366.41;85476;1293;99778;-72
2022/12/17 13:32:54;;;;;;;113.80;56.00;;;;;;;-1.20;88.67;99367.44;85434;1293;22855;-71
2022/12/17 13:35:25;;;;;;;113.80;56.30;;;;;;;-1.19;88.76;99369.00;85421;1286;25353;-72
2022/12/17 13:37:29;;;;;;;112.00;55.60;;;;;;;-1.19;88.65;99368.65;85348;1286;99280;-72
2022/12/17 13:39:50;;;;;;;117.00;54.40;;;;;;;-1.22;88.70;99374.48;85443;1289;22632;-72
2022/12/17 13:41:59;;;;;;;108.80;53.00;;;;;;;-1.23;88.70;99383.29;85300;1289;99451;-71
2022/12/17 13:44:16;;;;;;;114.10;54.40;;;;;;;-1.23;88.62;99387.42;85716;1289;22591;-72
2022/12/17 13:46:23;;;;;;;111.30;54.10;;;;;;;-1.24;88.67;99393.79;85346;1289;22720;-71
2022/12/17 13:48:27;;;;;;;117.70;55.90;;;;;;;-1.26;88.64;99387.57;85401;1289;99537;-72
2022/12/17 13:50:29;;;;;;;119.80;56.50;;;;;;;-1.25;88.63;99392.05;85998;1290;22506;-71
2022/12/17 13:52:33;;;;;;;119.30;58.70;;;;;;;-1.25;88.64;99397.92;85790;1286;22565;-74
2022/12/17 13:54:34;;;;;;;120.90;59.70;;;;;;;-1.24;88.77;99400.52;86046;1304;99480;-71
2022/12/17 13:56:36;;;;;;;120.80;56.90;;;;;;;-1.23;88.55;99404.84;86179;1290;23089;-71
2022/12/17 13:58:38;;;;;;;120.00;56.60;;;;;;;-1.22;88.59;99405.86;86842;1283;23766;-72
2022/12/17 14:00:40;;;;;;;125.60;58.50;;;;;;;-1.21;88.77;99408.30;87177;1290;98338;-72
2022/12/17 14:02:42;;;;;;;138.40;61.20;;;;;;;-1.20;88.68;99415.02;86611;1288;23527;-72
2022/12/17 14:04:50;;;;;;;128.50;57.40;;;;;;;-1.19;88.71;99421.41;86697;1288;23636;-71
2022/12/17 14:06:56;;;;;;;114.50;55.10;;;;;;;-1.18;88.73;99423.84;86354;1289;98495;-72
2022/12/17 14:08:59;;;;;;;120.50;56.00;;;;;;;-1.18;88.67;99430.04;86399;1289;22488;-75
2022/12/17 14:13:22;;;;;;;115.60;57.10;;;;;;;-1.16;88.68;99438.15;85744;1290;210404;-71
2022/12/17 14:15:27;;;;;;;99.80;47.60;;;;;;;-1.17;88.76;99442.63;85942;1283;24420;-71
2022/12/17 14:17:45;;;;;;;119.20;57.40;;;;;;;-1.16;88.82;99442.98;86070;1289;24350;-72
2022/12/17 14:19:55;;;;;;;112.80;54.10;;;;;;;-1.14;88.69;99446.09;85807;1290;22522;-71
2022/12/17 14:21:57;;;;;;;112.60;55.00;;;;;;;-1.14;88.73;99447.66;85978;1287;22485;-72
2022/12/17 14:23:59;;;;;;;123.90;58.50;;;;;;;-1.16;88.75;99446.44;85835;1287;99572;-71
2022/12/17 14:26:01;;;;;;;109.50;55.40;;;;;;;-1.15;88.78;99452.80;85958;1281;22840;-72
2022/12/17 14:28:19;;;;;;;112.00;54.70;;;;;;;-1.15;88.77;99456.61;85893;1280;24460;-72
2022/12/17 14:30:39;;;;;;;117.30;59.50;;;;;;;-1.14;88.78;99457.65;85899;1284;99409;-71
2022/12/17 14:32:42;;;;;;;129.10;59.10;;;;;;;-1.15;88.74;99462.65;85776;1283;22509;-72
2022/12/17 14:34:45;;;;;;;107.70;51.90;;;;;;;-1.14;88.76;99463.67;85937;1288;22478;-71
2022/12/17 14:36:54;;;;;;;87.50;40.50;;;;;;;-1.14;88.81;99470.93;85776;1287;100707;-72
2022/12/17 14:38:58;;;;;;;121.30;56.00;;;;;;;-1.14;88.77;99478.53;85776;1289;22552;-72
2022/12/17 14:43:31;;;;;;;152.40;73.40;;;;;;;-1.14;88.75;99485.08;85803;1288;99628;-71
2022/12/17 14:46:19;;;;;;;114.60;54.90;;;;;;;-1.14;88.80;99488.35;85819;1284;22496;-72
2022/12/17 14:47:58;;;;;;;138.50;64.50;;;;;;;-1.15;88.77;99488.16;85873;1280;99539;-72
2022/12/17 14:50:03;;;;;;;114.70;59.50;;;;;;;-1.14;88.85;99492.31;85874;1284;22621;-71
2022/12/17 14:52:12;;;;;;;134.20;59.80;;;;;;;-1.13;88.83;99495.95;85930;1286;24246;-72
2022/12/17 14:54:18;;;;;;;123.30;57.90;;;;;;;-1.14;88.73;99490.06;85692;1283;99503;-72
2022/12/17 14:56:22;;;;;;;149.80;70.80;;;;;;;-1.14;88.65;99494.73;85905;1281;22568;-71
2022/12/17 14:58:25;;;;;;;170.50;80.50;;;;;;;-1.13;88.69;99494.21;86079;1287;24330;-73
2022/12/17 15:00:27;;;;;;;142.10;68.70;;;;;;;-1.12;88.83;99500.26;85610;1290;99673;-71
2022/12/17 15:02:30;;;;;;;125.20;60.20;;;;;;;-1.12;88.71;99505.44;85929;1280;25945;-71
2022/12/17 15:04:32;;;;;;;116.90;59.50;;;;;;;-1.12;88.66;99508.02;86018;1280;22482;-71
2022/12/17 15:06:34;;;;;;;132.30;61.10;;;;;;;-1.12;88.67;99510.95;85725;1290;99481;-71
2022/12/17 15:08:39;;;;;;;117.30;59.70;;;;;;;-1.11;88.75;99514.58;85995;1280;22704;-70
2022/12/17 15:10:41;;;;;;;106.70;53.20;;;;;;;-1.09;88.74;99516.15;85865;1289;26203;-72
2022/12/17 15:12:43;;;;;;;125.70;60.40;;;;;;;-1.09;88.64;99518.05;85826;1288;99515;-71
2022/12/17 15:14:45;;;;;;;122.50;55.40;;;;;;;-1.07;88.66;99520.14;85887;1283;23881;-70
2022/12/17 15:16:47;;;;;;;114.40;55.20;;;;;;;-1.06;88.69;99517.04;85955;1280;22889;-71
2022/12/17 15:18:48;;;;;;;123.20;56.00;;;;;;;-1.07;88.65;99523.06;86022;1283;99621;-71
2022/12/17 15:20:50;;;;;;;125.80;56.30;;;;;;;-1.09;88.57;99524.09;85799;1283;22527;-72
2022/12/17 15:22:52;;;;;;;108.90;54.40;;;;;;;-1.12;88.65;99525.09;85734;1290;22484;-71
2022/12/17 15:24:54;;;;;;;125.80;60.40;;;;;;;-1.12;88.58;99533.37;85806;1288;99812;-72
2022/12/17 15:26:55;;;;;;;126.90;60.90;;;;;;;-1.14;88.51;99534.90;85885;1289;22702;-71
2022/12/17 15:28:57;;;;;;;132.10;62.70;;;;;;;-1.17;88.65;99541.42;85901;1288;22523;-71
2022/12/17 15:30:59;;;;;;;134.90;57.50;;;;;;;-1.17;88.64;99544.71;85905;1280;99934;-71
2022/12/17 15:33:02;;;;;;;131.10;60.90;;;;;;;-1.16;88.72;99546.94;85979;1288;22935;-73
2022/12/17 15:35:04;;;;;;;119.00;60.70;;;;;;;-1.16;88.58;99551.61;85802;1283;24259;-74
2022/12/17 15:37:06;;;;;;;136.40;64.00;;;;;;;-1.16;88.66;99554.02;85937;1287;99344;-73
2022/12/17 15:39:08;;;;;;;146.80;67.30;;;;;;;-1.16;88.52;99554.02;86187;1280;22696;-72
2022/12/17 15:43:30;;;;;;;136.80;64.30;;;;;;;-1.17;88.62;99556.09;85877;1287;99235;-72
2022/12/17 15:45:32;;;;;;;141.90;63.50;;;;;;;-1.17;88.63;99557.12;85947;1280;25425;-71
2022/12/17 15:47:34;;;;;;;131.00;62.40;;;;;;;-1.18;88.48;99561.42;85812;1283;22524;-71
2022/12/17 15:49:36;;;;;;;137.20;64.80;;;;;;;-1.18;88.53;99563.67;86180;1289;99695;-71
2022/12/17 15:51:40;;;;;;;134.00;64.70;;;;;;;-1.18;88.47;99563.33;85993;1283;24450;-71
2022/12/17 15:53:42;;;;;;;127.00;62.20;;;;;;;-1.17;88.49;99564.89;85872;1280;98427;-71
2022/12/17 15:55:45;;;;;;;150.80;66.80;;;;;;;-1.17;88.54;99562.81;85929;1287;24265;-71
2022/12/17 15:57:46;;;;;;;138.70;65.10;;;;;;;-1.16;88.62;99566.78;85684;1283;25185;-72
2022/12/17 15:59:50;;;;;;;138.70;64.20;;;;;;;-1.16;88.69;99567.81;86021;1280;99565;-72
2022/12/17 16:01:52;;;;;;;133.40;62.50;;;;;;;-1.14;88.63;99571.46;85829;1284;24502;-71
2022/12/17 16:03:53;;;;;;;136.30;61.80;;;;;;;-1.14;88.71;99575.44;85854;1283;22605;-70
2022/12/17 16:05:55;;;;;;;145.70;62.90;;;;;;;-1.16;88.50;99577.98;85694;1291;99640;-71
2022/12/17 16:08:00;;;;;;;129.80;60.70;;;;;;;-1.17;88.59;99581.27;85858;1291;25368;-72
2022/12/17 16:10:04;;;;;;;140.10;65.10;;;;;;;-1.18;88.52;99584.17;85930;1313;22595;-70
2022/12/17 16:12:06;;;;;;;148.60;66.80;;;;;;;-1.20;88.51;99582.79;85728;1289;99901;-70
2022/12/17 16:14:07;;;;;;;158.30;75.00;;;;;;;-1.21;88.57;99587.27;85890;1289;22745;-71
2022/12/17 16:16:09;;;;;;;155.60;68.30;;;;;;;-1.21;88.52;99593.47;85968;1280;25467;-71
2022/12/17 16:18:12;;;;;;;138.00;60.40;;;;;;;-1.19;88.53;99598.66;85878;1288;98358;-72
2022/12/17 16:20:14;;;;;;;130.40;61.00;;;;;;;-1.21;88.41;99601.40;85769;1290;24256;-71
2022/12/17 16:22:15;;;;;;;142.30;67.90;;;;;;;-1.23;88.48;99601.73;85763;1291;23198;-70
2022/12/17 16:24:17;;;;;;;144.70;67.10;;;;;;;-1.22;88.58;99603.98;85759;1291;99438;-70
2022/12/17 16:26:19;;;;;;;136.90;65.30;;;;;;;-1.21;88.57;99603.46;85637;1290;22490;-73
2022/12/17 16:28:21;;;;;;;152.60;67.30;;;;;;;-1.20;88.61;99604.52;85881;1283;24297;-71
2022/12/17 16:30:23;;;;;;;135.80;62.80;;;;;;;-1.20;88.49;99611.92;85773;1287;99892;-70
2022/12/17 16:32:24;;;;;;;143.70;63.50;;;;;;;-1.19;88.54;99607.29;86061;1280;23469;-70
2022/12/17 16:34:26;;;;;;;142.80;63.10;;;;;;;-1.19;88.47;99616.59;85867;1283;24437;-71
2022/12/17 16:36:28;;;;;;;132.20;63.60;;;;;;;-1.22;88.46;99621.91;85994;1284;99175;-71
2022/12/17 16:38:30;;;;;;;133.30;61.60;;;;;;;-1.22;88.49;99623.11;85865;1286;24315;-71
2022/12/17 16:40:32;;;;;;;143.20;65.50;;;;;;;-1.22;88.43;99627.77;85797;1297;22536;-71
2022/12/17 16:42:33;;;;;;;149.40;63.30;;;;;;;-1.21;88.47;99629.51;85749;1286;99880;-71
2022/12/17 16:44:35;;;;;;;155.30;66.80;;;;;;;-1.23;88.43;99628.45;85810;1283;24459;-71
2022/12/17 16:46:41;;;;;;;155.00;67.60;;;;;;;-1.25;88.46;99632.05;85890;1289;25549;-72
2022/12/17 16:48:43;;;;;;;148.10;66.40;;;;;;;-1.24;88.45;99632.23;85851;1289;99449;-72
2022/12/17 16:50:45;;;;;;;153.60;67.30;;;;;;;-1.24;88.45;99634.48;85952;1287;22507;-72
2022/12/17 16:52:47;;;;;;;168.20;74.50;;;;;;;-1.26;88.43;99636.54;85907;1287;24817;-71
2022/12/17 16:54:49;;;;;;;142.40;66.00;;;;;;;-1.25;88.46;99638.27;85814;1280;99747;-72
2022/12/17 16:56:51;;;;;;;145.20;62.10;;;;;;;-1.24;88.52;99636.55;85806;1288;23388;-71
2022/12/17 16:58:54;;;;;;;145.40;66.00;;;;;;;-1.22;88.47;99635.88;85809;1287;22618;-71
2022/12/17 17:00:55;;;;;;;165.00;70.40;;;;;;;-1.21;88.47;99639.33;85722;1291;99469;-72
2022/12/17 17:02:57;;;;;;;159.60;67.30;;;;;;;-1.22;88.53;99643.48;85849;1284;24944;-72
2022/12/17 17:04:59;;;;;;;151.60;65.70;;;;;;;-1.22;88.63;99647.42;85922;1281;25292;-71
2022/12/17 17:07:01;;;;;;;142.50;62.60;;;;;;;-1.20;88.49;99649.34;85802;1288;99475;-72
2022/12/17 17:09:03;;;;;;;147.80;65.30;;;;;;;-1.21;88.50;99648.48;85743;1290;22594;-71
2022/12/17 17:11:07;;;;;;;145.90;66.60;;;;;;;-1.22;88.52;99647.44;85773;1289;27783;-71
2022/12/17 17:13:10;;;;;;;153.80;65.40;;;;;;;-1.23;88.46;99658.63;85764;1291;99378;-72
2022/12/17 17:15:11;;;;;;;159.40;66.10;;;;;;;-1.24;88.56;99659.46;85746;1284;23118;-72
2022/12/17 17:17:13;;;;;;;156.40;70.60;;;;;;;-1.27;88.37;99664.80;85833;1287;22486;-72
2022/12/17 17:19:15;;;;;;;148.60;66.80;;;;;;;-1.29;88.36;99665.63;85784;1283;98917;-72
2022/12/17 17:21:30;;;;;;;161.80;70.10;;;;;;;-1.30;88.41;99667.34;85551;1286;22617;-72
2022/12/17 17:23:31;;;;;;;156.10;67.20;;;;;;;-1.33;88.43;99668.52;85796;1291;22987;-71
2022/12/17 17:25:34;;;;;;;146.50;63.00;;;;;;;-1.33;88.37;99669.90;85887;1287;99300;-70
2022/12/17 17:27:36;;;;;;;170.30;72.10;;;;;;;-1.34;88.35;99675.58;85808;1290;22511;-72
2022/12/17 17:29:38;;;;;;;161.10;68.40;;;;;;;-1.33;88.41;99680.60;85821;1291;23044;-71
2022/12/17 17:31:40;;;;;;;161.60;64.90;;;;;;;-1.32;88.48;99684.90;85886;1287;99116;-72
2022/12/17 17:33:47;;;;;;;152.00;63.80;;;;;;;-1.32;88.40;99689.39;86001;1286;22956;-71
2022/12/17 17:35:49;;;;;;;159.90;68.90;;;;;;;-1.31;88.50;99692.67;85613;1291;99652;-73
2022/12/17 17:37:50;;;;;;;156.80;66.60;;;;;;;-1.33;88.38;99691.80;85919;1290;22528;-72
2022/12/17 17:39:52;;;;;;;151.20;64.00;;;;;;;-1.35;88.48;99689.70;85868;1291;23006;-72
2022/12/17 17:41:54;;;;;;;156.40;66.80;;;;;;;-1.37;88.37;99691.75;85893;1287;99530;-71
2022/12/17 17:43:58;;;;;;;150.30;65.80;;;;;;;-1.39;88.34;99693.45;85916;1291;22750;-71
2022/12/17 17:46:09;;;;;;;164.00;70.30;;;;;;;-1.38;88.35;99695.89;86363;1291;22691;-70
2022/12/17 17:48:11;;;;;;;172.90;73.40;;;;;;;-1.38;88.35;99703.30;86691;1286;98281;-72
2022/12/17 17:50:12;;;;;;;164.70;66.80;;;;;;;-1.40;88.26;99702.58;86848;1291;22818;-73
2022/12/17 17:52:14;;;;;;;136.60;60.40;;;;;;;-1.40;88.32;99708.94;86905;1284;23188;-71
2022/12/17 17:54:15;;;;;;;155.20;67.00;;;;;;;-1.40;88.36;99714.64;86327;1286;99245;-72
2022/12/17 17:56:27;;;;;;;151.30;66.50;;;;;;;-1.39;88.35;99719.83;86256;1280;22530;-72
2022/12/17 17:58:29;;;;;;;159.50;68.00;;;;;;;-1.38;88.37;99721.55;86674;1289;25274;-73
2022/12/17 18:00:30;;;;;;;166.00;71.10;;;;;;;-1.35;88.55;99729.86;85978;1286;98686;-70
2022/12/17 18:02:32;;;;;;;161.70;67.70;;;;;;;-1.37;88.42;99732.61;86125;1287;22544;-72
2022/12/17 18:04:34;;;;;;;171.60;71.70;;;;;;;-1.38;88.33;99733.80;85925;1291;24192;-72
2022/12/17 18:06:37;;;;;;;154.50;64.70;;;;;;;-1.38;88.40;99738.98;85969;1289;99370;-71
2022/12/17 18:08:40;;;;;;;159.10;63.20;;;;;;;-1.35;88.44;99739.52;85993;1286;22516;-72
2022/12/17 18:10:42;;;;;;;160.30;65.70;;;;;;;-1.34;88.45;99741.09;86076;1288;22492;-71
2022/12/17 18:15:05;;;;;;;152.20;63.20;;;;;;;-1.41;88.28;99740.83;85862;1287;22607;-71
2022/12/17 18:17:06;;;;;;;160.40;66.20;;;;;;;-1.43;88.31;99737.70;85912;1280;24246;-70
2022/12/17 18:19:08;;;;;;;154.50;65.20;;;;;;;-1.46;88.17;99738.17;85845;1287;99810;-72
2022/12/17 18:21:15;;;;;;;137.60;59.50;;;;;;;-1.47;88.19;99739.19;85973;1287;22505;-71
2022/12/17 18:23:16;;;;;;;154.10;60.70;;;;;;;-1.49;88.24;99742.27;85895;1283;24486;-71
2022/12/17 18:25:18;;;;;;;147.80;60.60;;;;;;;-1.51;88.23;99748.10;85775;1291;99481;-72
2022/12/17 18:27:20;;;;;;;170.30;66.00;;;;;;;-1.54;88.26;99755.84;85867;1287;25680;-72
2022/12/17 18:29:27;;;;;;;168.60;63.20;;;;;;;-1.57;88.25;99757.34;85976;1280;24379;-72
2022/12/17 18:31:30;;;;;;;161.90;64.30;;;;;;;-1.58;88.24;99761.64;85686;1291;98550;-70
2022/12/17 18:33:32;;;;;;;162.20;66.10;;;;;;;-1.59;88.15;99763.70;86003;1288;22976;-71
2022/12/17 18:35:34;;;;;;;156.90;62.80;;;;;;;-1.61;88.20;99764.70;85739;1299;22611;-72
2022/12/17 18:37:36;;;;;;;175.10;71.20;;;;;;;-1.62;88.14;99767.61;85824;1283;100435;-73
2022/12/17 18:39:38;;;;;;;147.80;61.00;;;;;;;-1.64;88.19;99772.76;85906;1280;22543;-72
2022/12/17 18:44:09;;;;;;;144.60;59.40;;;;;;;-1.72;88.26;99770.23;87011;1297;24245;-72
2022/12/17 18:46:17;;;;;;;168.20;67.90;;;;;;;-1.61;88.25;99790.89;86846;1291;23015;-72
2022/12/17 18:48:30;;;;;;;193.80;76.60;;;;;;;-1.67;88.41;99784.42;86761;1289;98293;-72
2022/12/17 18:50:45;;;;;;;168.50;72.10;;;;;;;-1.64;88.26;99794.81;86887;1291;22659;-74
2022/12/17 18:52:55;;;;;;;188.50;73.80;;;;;;;-1.61;88.31;99802.60;86859;1291;22490;-74
2022/12/17 18:54:57;;;;;;;184.30;68.30;;;;;;;-1.67;88.17;99803.22;86823;1290;99568;-71
2022/12/17 18:57:05;;;;;;;165.30;68.90;;;;;;;-1.66;88.16;99807.01;86769;1293;22440;-70
2022/12/17 18:59:28;;;;;;;170.40;68.40;;;;;;;-1.65;88.16;99812.71;86954;1290;23139;-72
2022/12/17 19:01:38;;;;;;;167.10;66.40;;;;;;;-1.67;88.06;99810.10;86722;1283;99207;-73
2022/12/17 19:03:44;;;;;;;179.60;71.00;;;;;;;-1.68;88.15;99810.94;86636;1293;22535;-71
2022/12/17 19:05:53;;;;;;;160.00;64.80;;;;;;;-1.68;88.09;99811.13;86805;1301;22560;-71
2022/12/17 19:08:02;;;;;;;180.10;72.90;;;;;;;-1.65;88.14;99810.98;86987;1291;22588;-73
2022/12/17 19:10:09;;;;;;;169.90;64.60;;;;;;;-1.63;88.27;99813.43;86942;1300;22488;-72
2022/12/17 19:12:17;;;;;;;161.40;65.60;;;;;;;-1.67;88.20;99808.73;86666;1291;98610;-71
2022/12/17 19:14:30;;;;;;;153.40;65.20;;;;;;;-1.67;88.14;99813.89;87012;1291;22510;-72
2022/12/17 19:16:49;;;;;;;108.00;43.30;;;;;;;-1.64;88.17;99819.10;86763;1294;23165;-70
2022/12/17 19:19:04;;;;;;;143.60;56.30;;;;;;;-1.68;88.17;99816.29;86765;1300;99494;-70
2022/12/17 19:21:13;;;;;;;134.30;52.70;;;;;;;-1.64;88.15;99824.98;86853;1291;22702;-70
2022/12/17 19:23:37;;;;;;;143.90;56.50;;;;;;;-1.67;88.23;99822.51;86943;1297;22542;-70
2022/12/17 19:25:56;;;;;;;146.70;52.50;;;;;;;-1.66;88.16;99834.59;86944;1291;100235;-72
2022/12/17 19:28:06;;;;;;;123.50;52.70;;;;;;;-1.70;88.04;99839.17;86922;1300;22460;-72
2022/12/17 19:30:32;;;;;;;126.50;54.10;;;;;;;-1.73;88.00;99850.52;86734;1296;99863;-73
2022/12/17 19:33:15;;;;;;;131.70;51.80;;;;;;;-1.77;88.02;99852.00;86700;1287;25834;-71
2022/12/17 19:35:19;;;;;;;120.20;49.40;;;;;;;-1.79;87.96;99859.38;86820;1290;22569;-72
2022/12/17 19:37:33;;;;;;;123.60;52.00;;;;;;;-1.85;87.95;99857.71;86836;1299;98932;-72
2022/12/17 19:39:40;;;;;;;135.70;53.50;;;;;;;-1.85;87.94;99861.85;86847;1290;22538;-74
2022/12/17 19:41:49;;;;;;;144.80;57.50;;;;;;;-1.88;87.96;99860.94;86957;1290;22571;-71
2022/12/17 19:44:00;;;;;;;135.70;53.70;;;;;;;-1.82;87.96;99877.08;86781;1296;98341;-72
2022/12/17 19:46:10;;;;;;;130.00;53.80;;;;;;;-1.82;87.87;99879.13;86802;1291;22574;-71
2022/12/17 19:48:15;;;;;;;130.40;53.80;;;;;;;-1.84;87.87;99882.02;86922;1290;100227;-71
2022/12/17 19:50:26;;;;;;;141.30;56.50;;;;;;;-1.86;87.87;99887.15;86965;1285;22554;-72
2022/12/17 19:52:30;;;;;;;141.70;59.90;;;;;;;-1.93;87.89;99878.09;86902;1293;23209;-71
2022/12/17 19:54:57;;;;;;;127.20;52.10;;;;;;;-1.88;87.92;99889.36;86657;1294;98521;-74
2022/12/17 19:57:09;;;;;;;124.70;48.70;;;;;;;-1.87;87.91;99895.23;86908;1294;22457;-71
2022/12/17 19:59:13;;;;;;;122.20;50.30;;;;;;;-1.88;87.91;99897.64;86906;1291;22389;-71
2022/12/17 20:01:30;;;;;;;127.80;53.40;;;;;;;-1.88;87.96;99897.27;86759;1291;98578;-72
2022/12/17 20:03:34;;;;;;;120.30;51.20;;;;;;;-1.85;87.88;99903.02;86716;1296;23583;-71
2022/12/17 20:05:49;;;;;;;131.20;54.40;;;;;;;-1.87;87.95;99902.80;86794;1291;22881;-72
2022/12/17 20:08:08;;;;;;;131.70;52.50;;;;;;;-1.91;87.91;99901.88;86880;1290;98249;-74
2022/12/17 20:10:30;;;;;;;;;;;;;;;;;;;;;
2022/12/17 20:12:42;;;;;;;;;;;;;;;-1.91;87.93;99908.09;86530;1297;99882;-71
2022/12/17 20:15:12;;;;;;;124.90;51.50;;;;;;;-1.99;87.89;99907.79;86797;1283;22484;-71
2022/12/17 20:17:44;;;;;;;110.70;50.00;;;;;;;-1.92;87.87;99916.70;86733;1292;23073;-72
2022/12/17 20:20:01;;;;;;;79.20;36.30;;;;;;;-1.90;87.95;99923.95;86694;1299;98332;-71
2022/12/17 20:22:10;;;;;;;116.80;48.70;;;;;;;-1.92;87.92;99929.27;86685;1289;22705;-71
2022/12/17 20:24:38;;;;;;;113.90;48.70;;;;;;;-1.92;88.00;99931.84;86907;1297;22840;-72
2022/12/17 20:26:41;;;;;;;118.70;48.50;;;;;;;-1.91;87.91;99934.45;86858;1299;22552;-71
2022/12/17 20:28:58;;;;;;;113.40;46.50;;;;;;;-1.98;87.80;99924.85;86917;1297;22550;-71
2022/12/17 20:31:09;;;;;;;103.60;44.30;;;;;;;-2.05;87.90;99921.96;86718;1293;99148;-72
2022/12/17 20:33:14;;;;;;;108.10;46.50;;;;;;;-1.96;87.87;99942.80;87004;1291;22436;-71
2022/12/17 20:35:42;;;;;;;98.70;40.30;;;;;;;-1.94;87.99;99948.69;86760;1301;22449;-73
2022/12/17 20:37:52;;;;;;;110.80;44.40;;;;;;;-1.96;87.87;99956.22;87010;1307;99431;-71
2022/12/17 20:40:09;;;;;;;110.10;43.60;;;;;;;-1.98;87.90;99956.71;86873;1288;23964;-70
2022/12/17 20:42:21;;;;;;;115.30;45.80;;;;;;;-2.00;87.88;99961.82;86720;1291;22502;-70
2022/12/17 20:44:28;;;;;;;98.90;43.60;;;;;;;-2.04;87.79;99971.23;86818;1301;99396;-70
2022/12/17 20:46:45;;;;;;;119.40;46.10;;;;;;;-2.09;87.70;99971.48;86710;1294;24128;-72
2022/12/17 20:48:59;;;;;;;104.70;45.40;;;;;;;-2.10;87.86;99977.51;86753;1299;99222;-72
2022/12/17 20:51:26;;;;;;;104.70;40.80;;;;;;;-2.22;87.59;99965.20;86642;1301;22556;-70
2022/12/17 20:53:49;;;;;;;111.60;46.90;;;;;;;-2.13;87.67;99984.66;86746;1294;22600;-70
2022/12/17 20:56:26;;;;;;;95.40;41.10;;;;;;;-2.16;87.85;99985.29;86714;1305;100375;-71
2022/12/17 20:58:29;;;;;;;96.60;40.70;;;;;;;-2.30;87.56;99974.52;86819;1299;23775;-72
2022/12/17 21:00:37;;;;;;;98.10;41.10;;;;;;;-2.23;87.64;99992.75;86715;1300;22954;-70
2022/12/17 21:02:53;;;;;;;102.30;40.40;;;;;;;-2.22;87.67;99997.74;86748;1293;22507;-71
2022/12/17 21:05:09;;;;;;;98.30;41.30;;;;;;;-2.23;87.79;100000.83;86845;1307;22702;-69
2022/12/17 21:08:07;;;;;;;99.90;42.40;;;;;;;-2.30;87.60;100002.41;86723;1301;99415;-71
2022/12/17 21:09:59;;;;;;;108.30;41.10;;;;;;;-2.33;87.55;100007.35;86614;1300;22633;-74
2022/12/17 21:12:12;;;;;;;94.80;37.50;;;;;;;-2.35;87.61;100007.81;86725;1302;22534;-71
2022/12/17 21:14:46;;;;;;;97.00;40.20;;;;;;;-2.34;87.59;100010.77;86438;1292;98338;-70
2022/12/17 21:17:00;;;;;;;113.30;41.90;;;;;;;-2.34;87.59;100010.92;86628;1294;22479;-71
2022/12/17 21:19:18;;;;;;;106.00;42.80;;;;;;;-2.34;87.58;100015.77;86421;1300;99149;-71
2022/12/17 21:21:39;;;;;;;93.10;37.80;;;;;;;-2.32;87.76;100024.75;86842;1294;22513;-75
2022/12/17 21:23:58;;;;;;;;;;;;;;;-2.32;87.66;100020.09;87169;1300;22501;-70
2022/12/17 21:26:26;;;;;;;112.60;44.90;;;;;;;-2.35;87.65;100021.58;86843;1293;85635;-71
2022/12/17 21:28:37;;;;;;;118.00;46.70;;;;;;;-2.38;87.58;100023.58;86720;1301;22546;-70
2022/12/17 21:31:05;;;;;;;;;;;;;;;;;;;;;
2022/12/17 21:33:33;;;;;;;123.20;47.20;;;;;;;-2.32;87.82;100031.11;86483;1300;22517;-73
2022/12/17 21:35:39;;;;;;;112.80;45.10;;;;;;;-2.32;87.62;100033.70;87034;1299;22548;-71
2022/12/17 21:37:45;;;;;;;125.00;46.70;;;;;;;-2.32;87.58;100032.48;86874;1299;98520;-71
2022/12/17 21:40:00;;;;;;;128.80;45.40;;;;;;;-2.34;87.53;100032.11;86950;1314;22626;-71
2022/12/17 21:44:43;;;;;;;106.90;41.60;;;;;;;-2.33;87.50;100041.76;86870;1293;98503;-71
2022/12/17 21:46:45;;;;;;;119.40;47.70;;;;;;;-2.33;87.63;100042.11;86427;1292;22580;-70
2022/12/17 21:49:06;;;;;;;;;;;;;;;;;;;;;
2022/12/17 21:51:15;;;;;;;123.70;48.30;;;;;;;-2.30;87.70;100054.23;86824;1292;24261;-70
2022/12/17 21:53:42;;;;;;;117.00;46.50;;;;;;;-2.27;87.72;100056.00;87195;1301;25948;-70
2022/12/17 21:55:49;;;;;;;117.90;46.50;;;;;;;-2.26;87.77;100062.58;86635;1300;99199;-71
2022/12/17 21:58:01;;;;;;;117.50;45.90;;;;;;;-2.29;87.79;100053.21;86813;1299;22451;-71
2022/12/17 22:00:10;;;;;;;109.10;44.00;;;;;;;-2.30;87.85;100059.73;86928;1290;22578;-71
2022/12/17 22:02:14;;;;;;;115.00;46.80;;;;;;;-2.21;87.82;100075.06;87125;1297;98649;-70
2022/12/17 22:04:20;;;;;;;123.50;47.20;;;;;;;-2.21;87.87;100078.68;87182;1296;23084;-70
2022/12/17 22:09:03;;;;;;;112.20;46.00;;;;;;;-2.23;87.75;100080.18;87329;1288;98466;-70
2022/12/17 22:11:29;;;;;;;108.40;43.10;;;;;;;-2.25;87.76;100082.20;87330;1296;22542;-73
2022/12/17 22:14:05;;;;;;;102.30;40.60;;;;;;;-2.20;87.80;100095.22;87314;1289;98567;-71
2022/12/17 22:16:06;;;;;;;115.70;46.10;;;;;;;-2.19;87.71;100091.11;87301;1288;22117;-70
2022/12/17 22:18:15;;;;;;;103.40;44.50;;;;;;;-2.19;87.84;100095.26;86840;1303;22651;-72
2022/12/17 22:20:25;;;;;;;102.30;42.60;;;;;;;-2.18;87.73;100103.02;87106;1291;100651;-69
2022/12/17 22:22:34;;;;;;;106.70;45.70;;;;;;;-2.17;87.83;100101.33;87109;1300;22509;-69
2022/12/17 22:24:42;;;;;;;114.70;47.50;;;;;;;-2.17;87.79;100104.58;87235;1296;22500;-70
2022/12/17 22:26:58;;;;;;;110.60;46.90;;;;;;;-2.16;87.82;100099.45;87275;1297;99928;-69
2022/12/17 22:29:12;;;;;;;115.80;45.30;;;;;;;-2.19;87.80;100101.45;87273;1296;22485;-71
2022/12/17 22:34:12;;;;;;;99.00;43.00;;;;;;;-2.16;87.73;100104.27;87355;1296;22552;-70
2022/12/17 22:36:14;;;;;;;101.40;43.00;;;;;;;-2.15;87.84;100107.23;87380;1311;22598;-70
2022/12/17 22:38:22;;;;;;;102.90;45.80;;;;;;;-2.14;87.82;100109.99;87174;1301;100122;-70
2022/12/17 22:40:46;;;;;;;91.80;41.20;;;;;;;-2.13;87.92;100107.59;86662;1300;22450;-69
2022/12/17 22:45:38;;;;;;;103.20;45.10;;;;;;;-2.16;87.77;100117.86;87451;1293;24723;-71
2022/12/17 22:47:47;;;;;;;102.80;44.50;;;;;;;-2.16;87.74;100121.83;87225;1291;22547;-71
2022/12/17 22:49:52;;;;;;;108.00;44.30;;;;;;;-2.17;87.67;100118.54;87003;1295;100898;-69
2022/12/17 22:52:34;;;;;;;101.70;45.10;;;;;;;-2.15;87.75;100124.59;87547;1295;22858;-72
2022/12/17 22:55:08;;;;;;;100.10;38.40;;;;;;;-2.18;87.93;100117.66;87765;1284;25287;-69
2022/12/17 22:57:15;;;;;;;100.00;41.00;;;;;;;-2.14;87.81;100127.39;87492;1294;98397;-72
2022/12/17 22:59:33;;;;;;;94.80;41.50;;;;;;;-2.07;87.99;100128.41;87553;1300;23947;-70
2022/12/17 23:01:37;;;;;;;98.10;43.10;;;;;;;-2.06;87.76;100130.33;87245;1290;98618;-72
2022/12/17 23:03:42;;;;;;;87.20;38.60;;;;;;;-2.06;87.81;100131.17;87359;1294;23787;-71
2022/12/17 23:05:53;;;;;;;92.10;40.50;;;;;;;-2.03;87.92;100137.27;87454;1293;22496;-70
2022/12/17 23:08:03;;;;;;;87.30;37.70;;;;;;;-2.02;87.93;100139.87;87406;1289;99467;-73
2022/12/17 23:10:08;;;;;;;98.80;41.90;;;;;;;-2.02;87.79;100140.22;87288;1296;22511;-69
2022/12/17 23:14:49;;;;;;;92.40;40.60;;;;;;;-2.03;87.79;100146.74;87417;1299;99722;-70
2022/12/17 23:17:07;;;;;;;99.10;42.00;;;;;;;-2.05;87.84;100146.69;87431;1294;22516;-70